createdAt,value
2023-04-16T00:00:17.652Z,82.39
2023-04-16T00:00:49.923Z,82.56
2023-04-16T00:01:22.118Z,82.52
2023-04-16T00:01:57.072Z,82.13
2023-04-16T00:02:29.529Z,82.27
2023-04-16T00:03:02.037Z,82.23
2023-04-16T00:03:37.089Z,82.14
2023-04-16T00:04:09.559Z,82.15
2023-04-16T00:04:42.028Z,82.54
2023-04-16T00:05:17.114Z,82.11
2023-04-16T00:05:49.418Z,82.34
2023-04-16T00:06:21.692Z,82.26
2023-04-16T00:06:56.433Z,82.24
2023-04-16T00:07:28.668Z,82.15
2023-04-16T00:08:00.970Z,82.06
2023-04-16T00:08:36.048Z,82.44
2023-04-16T00:09:08.466Z,82.42
2023-04-16T00:09:41.019Z,82.17
2023-04-16T00:10:16.991Z,81.97
2023-04-16T00:10:49.173Z,82.36
2023-04-16T00:11:22.699Z,82.11
2023-04-16T00:11:57.532Z,82.25
2023-04-16T00:12:29.820Z,82.16
2023-04-16T00:13:02.088Z,82.68
2023-04-16T00:13:39.657Z,82.31
2023-04-16T00:14:11.997Z,82.72
2023-04-16T00:14:44.266Z,82.54
2023-04-16T00:15:19.031Z,82.70
2023-04-16T00:15:51.240Z,82.15
2023-04-16T00:16:23.495Z,82.42
2023-04-16T00:16:58.427Z,82.66
2023-04-16T00:17:31.318Z,82.51
2023-04-16T00:18:03.702Z,82.63
2023-04-16T00:18:38.658Z,82.58
2023-04-16T00:19:10.958Z,82.50
2023-04-16T00:19:43.389Z,82.31
2023-04-16T00:20:18.148Z,82.23
2023-04-16T00:20:50.920Z,82.26
2023-04-16T00:21:23.132Z,82.30
2023-04-16T00:21:57.898Z,82.68
2023-04-16T00:22:30.155Z,82.44
2023-04-16T00:23:02.323Z,82.59
2023-04-16T00:23:34.889Z,82.63
2023-04-16T00:24:09.739Z,82.75
2023-04-16T00:24:42.259Z,82.58
2023-04-16T00:25:14.738Z,82.53
2023-04-16T00:25:49.707Z,82.63
2023-04-16T00:26:21.921Z,82.52
2023-04-16T00:26:54.286Z,82.65
2023-04-16T00:27:29.038Z,82.69
2023-04-16T00:28:01.340Z,82.69
2023-04-16T00:28:33.563Z,82.97
2023-04-16T00:29:11.109Z,82.59
2023-04-16T00:29:43.560Z,82.92
2023-04-16T00:30:15.988Z,82.69
2023-04-16T00:30:51.351Z,82.86
2023-04-16T00:31:28.167Z,82.76
2023-04-16T00:32:01.685Z,82.53
2023-04-16T00:32:33.995Z,82.97
2023-04-16T00:33:08.765Z,82.82
2023-04-16T00:33:40.998Z,82.72
2023-04-16T00:34:13.166Z,82.96
2023-04-16T00:34:47.928Z,82.98
2023-04-16T00:35:20.554Z,82.60
2023-04-16T00:35:52.895Z,82.86
2023-04-16T00:36:28.798Z,83.07
2023-04-16T00:37:01.031Z,82.64
2023-04-16T00:37:33.224Z,83.10
2023-04-16T00:38:07.993Z,82.99
2023-04-16T00:38:40.171Z,82.77
2023-04-16T00:39:12.407Z,82.99
2023-04-16T00:39:47.143Z,83.05
2023-04-16T00:40:19.350Z,83.00
2023-04-16T00:40:51.586Z,83.06
2023-04-16T00:41:27.028Z,82.79
2023-04-16T00:41:59.405Z,83.03
2023-04-16T00:42:31.606Z,83.04
2023-04-16T00:43:06.388Z,82.88
2023-04-16T00:43:38.550Z,82.88
2023-04-16T00:44:15.913Z,83.03
2023-04-16T00:44:48.168Z,83.05
2023-04-16T00:45:20.695Z,83.07
2023-04-16T00:45:56.438Z,83.13
2023-04-16T00:46:28.842Z,83.27
2023-04-16T00:47:01.619Z,83.32
2023-04-16T00:47:36.781Z,82.88
2023-04-16T00:48:09.006Z,83.25
2023-04-16T00:48:42.727Z,83.04
2023-04-16T00:49:18.614Z,83.32
2023-04-16T00:49:50.989Z,82.94
2023-04-16T00:50:23.921Z,83.15
2023-04-16T00:50:58.755Z,83.13
2023-04-16T00:51:31.569Z,83.01
2023-04-16T00:52:03.850Z,83.45
2023-04-16T00:52:38.751Z,83.27
2023-04-16T00:53:11.155Z,83.17
2023-04-16T00:53:44.890Z,83.29
2023-04-16T00:54:19.679Z,83.17
2023-04-16T00:54:52.731Z,83.12
2023-04-16T00:55:25.013Z,83.12
2023-04-16T00:56:00.898Z,83.00
2023-04-16T00:56:33.891Z,83.42
2023-04-16T00:57:06.810Z,83.19
2023-04-16T00:57:41.613Z,83.00
2023-04-16T00:58:13.868Z,83.15
2023-04-16T00:58:46.624Z,83.28
2023-04-16T00:59:24.361Z,83.02
2023-04-16T00:59:57.286Z,82.99
2023-04-16T01:00:29.647Z,83.36
2023-04-16T01:01:05.131Z,83.64
2023-04-16T01:01:37.921Z,83.47
2023-04-16T01:02:10.208Z,83.27
2023-04-16T01:02:45.160Z,83.68
2023-04-16T01:03:17.724Z,83.35
2023-04-16T01:03:50.946Z,83.22
2023-04-16T01:04:26.895Z,83.46
2023-04-16T01:05:00.400Z,83.69
2023-04-16T01:05:32.638Z,83.76
2023-04-16T01:06:08.151Z,83.72
2023-04-16T01:06:40.419Z,83.94
2023-04-16T01:07:12.741Z,83.79
2023-04-16T01:07:47.501Z,83.75
2023-04-16T01:08:22.223Z,83.69
2023-04-16T01:08:54.413Z,83.53
2023-04-16T01:09:29.238Z,83.46
2023-04-16T01:10:02.074Z,83.57
2023-04-16T01:10:34.251Z,83.68
2023-04-16T01:11:06.552Z,83.62
2023-04-16T01:11:41.317Z,83.92
2023-04-16T01:12:14.176Z,83.94
2023-04-16T01:12:46.823Z,83.40
2023-04-16T01:13:21.678Z,83.52
2023-04-16T01:13:53.891Z,83.71
2023-04-16T01:14:29.026Z,83.44
2023-04-16T01:15:04.183Z,83.80
2023-04-16T01:15:36.663Z,83.97
2023-04-16T01:16:10.178Z,83.90
2023-04-16T01:16:44.973Z,83.98
2023-04-16T01:17:17.430Z,83.92
2023-04-16T01:17:49.717Z,83.83
2023-04-16T01:18:23.319Z,83.53
2023-04-16T01:18:58.228Z,83.59
2023-04-16T01:19:31.427Z,83.51
2023-04-16T01:20:04.034Z,83.50
2023-04-16T01:20:41.399Z,83.50
2023-04-16T01:21:13.671Z,84.00
2023-04-16T01:21:45.962Z,83.72
2023-04-16T01:22:20.872Z,83.76
2023-04-16T01:22:53.481Z,83.41
2023-04-16T01:23:25.770Z,83.74
2023-04-16T01:24:01.206Z,83.76
2023-04-16T01:24:35.855Z,83.68
2023-04-16T01:25:08.390Z,83.67
2023-04-16T01:25:43.427Z,83.61
2023-04-16T01:26:16.106Z,83.78
2023-04-16T01:26:48.380Z,83.71
2023-04-16T01:27:23.263Z,84.23
2023-04-16T01:27:57.498Z,83.85
2023-04-16T01:28:29.704Z,83.82
2023-04-16T01:29:05.595Z,84.08
2023-04-16T01:29:38.389Z,84.22
2023-04-16T01:30:11.294Z,83.85
2023-04-16T01:30:56.497Z,83.99
2023-04-16T01:31:58.200Z,84.18
2023-04-16T01:32:35.732Z,84.35
2023-04-16T01:33:11.244Z,84.25
2023-04-16T01:33:43.467Z,84.19
2023-04-16T01:34:19.893Z,84.16
2023-04-16T01:34:52.065Z,84.13
2023-04-16T01:35:24.467Z,84.26
2023-04-16T01:36:02.065Z,84.03
2023-04-16T01:36:34.332Z,84.09
2023-04-16T01:37:06.571Z,84.16
2023-04-16T01:37:41.356Z,84.57
2023-04-16T01:38:15.827Z,84.58
2023-04-16T01:38:48.133Z,84.36
2023-04-16T01:39:22.987Z,84.48
2023-04-16T01:39:55.795Z,84.24
2023-04-16T01:40:28.042Z,84.72
2023-04-16T01:41:00.504Z,84.46
2023-04-16T01:41:35.266Z,84.34
2023-04-16T01:42:07.554Z,84.54
2023-04-16T01:42:39.735Z,84.50
2023-04-16T01:43:14.519Z,84.61
2023-04-16T01:43:46.809Z,84.28
2023-04-16T01:44:19.070Z,84.47
2023-04-16T01:44:54.213Z,84.42
2023-04-16T01:45:26.544Z,84.23
2023-04-16T01:46:12.634Z,84.20
2023-04-16T01:46:47.869Z,84.53
2023-04-16T01:47:20.315Z,84.77
2023-04-16T01:47:52.981Z,84.40
2023-04-16T01:48:27.798Z,84.69
2023-04-16T01:49:00.218Z,84.16
2023-04-16T01:49:33.971Z,84.59
2023-04-16T01:50:10.422Z,84.55
2023-04-16T01:50:42.739Z,84.43
2023-04-16T01:51:17.686Z,84.60
2023-04-16T01:51:53.173Z,84.49
2023-04-16T01:52:25.512Z,84.33
2023-04-16T01:52:57.827Z,84.49
2023-04-16T01:53:32.597Z,84.27
2023-04-16T01:54:04.786Z,84.42
2023-04-16T01:54:37.050Z,84.39
2023-04-16T01:55:12.788Z,84.45
2023-04-16T01:55:44.987Z,84.36
2023-04-16T01:56:17.467Z,84.42
2023-04-16T01:56:52.326Z,84.40
2023-04-16T01:57:24.578Z,84.43
2023-04-16T01:57:58.579Z,84.69
2023-04-16T01:58:33.884Z,84.59
2023-04-16T01:59:09.222Z,84.52
2023-04-16T01:59:45.283Z,84.50
2023-04-16T02:00:17.819Z,84.54
2023-04-16T02:00:53.117Z,84.53
2023-04-16T02:01:28.180Z,84.21
2023-04-16T02:02:03.636Z,84.23
2023-04-16T02:02:36.640Z,84.46
2023-04-16T02:03:12.679Z,84.71
2023-04-16T02:03:45.276Z,84.36
2023-04-16T02:04:17.866Z,84.63
2023-04-16T02:04:52.681Z,84.61
2023-04-16T02:05:24.913Z,84.67
2023-04-16T02:05:59.737Z,84.67
2023-04-16T02:06:36.884Z,84.34
2023-04-16T02:07:09.455Z,84.70
2023-04-16T02:07:44.310Z,84.66
2023-04-16T02:08:16.473Z,84.48
2023-04-16T02:08:48.755Z,84.34
2023-04-16T02:09:23.612Z,84.69
2023-04-16T02:09:55.939Z,84.52
2023-04-16T02:10:28.221Z,84.41
2023-04-16T02:11:04.293Z,84.49
2023-04-16T02:11:36.455Z,84.63
2023-04-16T02:12:09.809Z,84.35
2023-04-16T02:12:44.570Z,84.84
2023-04-16T02:13:18.789Z,84.48
2023-04-16T02:13:52.808Z,85.01
2023-04-16T02:14:28.021Z,84.77
2023-04-16T02:15:00.729Z,84.68
2023-04-16T02:15:34.111Z,85.19
2023-04-16T02:16:09.598Z,85.13
2023-04-16T02:16:50.280Z,85.18
2023-04-16T02:17:36.812Z,84.88
2023-04-16T02:18:19.144Z,84.98
2023-04-16T02:18:51.939Z,85.19
2023-04-16T02:19:26.678Z,84.98
2023-04-16T02:20:03.611Z,84.99
2023-04-16T02:20:40.341Z,85.05
2023-04-16T02:21:15.298Z,85.14
2023-04-16T02:21:52.138Z,85.12
2023-04-16T02:22:24.377Z,85.12
2023-04-16T02:22:59.494Z,85.30
2023-04-16T02:23:31.984Z,84.99
2023-04-16T02:24:05.887Z,85.22
2023-04-16T02:24:41.354Z,84.77
2023-04-16T02:25:15.688Z,84.80
2023-04-16T02:25:48.576Z,84.87
2023-04-16T02:26:23.956Z,84.70
2023-04-16T02:26:57.132Z,84.90
2023-04-16T02:27:29.538Z,84.82
2023-04-16T02:28:12.299Z,84.81
2023-04-16T02:28:46.609Z,85.20
2023-04-16T02:29:19.755Z,84.66
2023-04-16T02:30:00.975Z,84.96
2023-04-16T02:30:36.928Z,84.93
2023-04-16T02:31:09.840Z,85.05
2023-04-16T02:31:49.423Z,84.98
2023-04-16T02:32:22.483Z,85.10
2023-04-16T02:32:54.778Z,84.89
2023-04-16T02:33:32.020Z,85.37
2023-04-16T02:34:07.315Z,85.20
2023-04-16T02:34:40.358Z,84.91
2023-04-16T02:35:15.941Z,84.92
2023-04-16T02:35:48.951Z,85.34
2023-04-16T02:36:21.155Z,85.02
2023-04-16T02:36:58.571Z,85.26
2023-04-16T02:37:31.137Z,84.90
2023-04-16T02:38:04.388Z,84.95
2023-04-16T02:38:40.350Z,85.16
2023-04-16T02:39:12.591Z,85.04
2023-04-16T02:39:45.294Z,84.86
2023-04-16T02:40:19.962Z,84.86
2023-04-16T02:40:56.719Z,84.63
2023-04-16T02:41:28.902Z,84.91
2023-04-16T02:42:02.762Z,84.78
2023-04-16T02:42:37.625Z,85.09
2023-04-16T02:43:09.860Z,84.78
2023-04-16T02:43:42.122Z,85.30
2023-04-16T02:44:17.045Z,85.02
2023-04-16T02:44:49.239Z,84.79
2023-04-16T02:45:21.847Z,85.21
2023-04-16T02:45:56.886Z,85.19
2023-04-16T02:46:29.265Z,85.30
2023-04-16T02:47:01.525Z,85.02
2023-04-16T02:47:36.326Z,85.15
2023-04-16T02:48:09.838Z,85.16
2023-04-16T02:48:42.032Z,84.91
2023-04-16T02:49:16.865Z,85.45
2023-04-16T02:49:49.042Z,85.31
2023-04-16T02:50:21.407Z,85.03
2023-04-16T02:50:56.237Z,85.20
2023-04-16T02:51:28.525Z,84.88
2023-04-16T02:52:03.491Z,85.07
2023-04-16T02:52:38.282Z,85.12
2023-04-16T02:53:10.923Z,85.04
2023-04-16T02:53:46.193Z,84.87
2023-04-16T02:54:21.581Z,84.90
2023-04-16T02:54:53.828Z,85.26
2023-04-16T02:55:26.026Z,85.03
2023-04-16T02:56:00.888Z,84.90
2023-04-16T02:56:33.046Z,85.22
2023-04-16T02:57:06.356Z,85.16
2023-04-16T02:57:42.747Z,85.00
2023-04-16T02:58:14.973Z,85.15
2023-04-16T02:58:47.177Z,85.12
2023-04-16T02:59:21.959Z,84.87
2023-04-16T02:59:54.200Z,85.04
2023-04-16T03:00:26.848Z,84.97
2023-04-16T03:00:59.145Z,84.91
2023-04-16T03:01:34.059Z,85.06
2023-04-16T03:02:06.580Z,84.94
2023-04-16T03:02:39.000Z,85.04
2023-04-16T03:03:14.029Z,85.24
2023-04-16T03:03:46.256Z,85.13
2023-04-16T03:04:18.559Z,85.03
2023-04-16T03:04:53.398Z,84.93
2023-04-16T03:05:25.709Z,85.09
2023-04-16T03:05:57.926Z,85.02
2023-04-16T03:06:32.854Z,85.19
2023-04-16T03:07:09.265Z,85.01
2023-04-16T03:07:41.552Z,84.82
2023-04-16T03:08:16.457Z,84.89
2023-04-16T03:08:48.797Z,84.68
2023-04-16T03:09:21.279Z,85.29
2023-04-16T03:09:56.082Z,84.89
2023-04-16T03:10:28.448Z,85.18
2023-04-16T03:11:00.622Z,85.44
2023-04-16T03:11:35.612Z,85.06
2023-04-16T03:12:07.807Z,85.28
2023-04-16T03:12:40.070Z,85.11
2023-04-16T03:13:12.363Z,85.42
2023-04-16T03:13:47.133Z,84.95
2023-04-16T03:14:19.397Z,85.29
2023-04-16T03:14:51.825Z,84.94
2023-04-16T03:15:24.337Z,85.30
2023-04-16T03:15:59.172Z,85.23
2023-04-16T03:16:31.630Z,85.02
2023-04-16T03:17:03.999Z,85.25
2023-04-16T03:17:38.835Z,85.04
2023-04-16T03:18:11.093Z,85.07
2023-04-16T03:18:43.288Z,85.44
2023-04-16T03:19:18.045Z,85.22
2023-04-16T03:19:51.104Z,84.98
2023-04-16T03:20:25.012Z,85.36
2023-04-16T03:21:01.042Z,85.45
2023-04-16T03:21:33.494Z,85.22
2023-04-16T03:22:08.421Z,85.33
2023-04-16T03:22:43.501Z,85.15
2023-04-16T03:23:15.768Z,84.88
2023-04-16T03:23:48.019Z,85.15
2023-04-16T03:24:20.234Z,85.04
2023-04-16T03:24:57.205Z,85.27
2023-04-16T03:25:29.586Z,85.43
2023-04-16T03:26:01.913Z,85.46
2023-04-16T03:26:37.374Z,84.94
2023-04-16T03:27:09.563Z,85.26
2023-04-16T03:27:41.888Z,85.36
2023-04-16T03:28:17.459Z,85.06
2023-04-16T03:28:49.775Z,85.20
2023-04-16T03:29:22.061Z,85.44
2023-04-16T03:29:57.439Z,85.14
2023-04-16T03:30:30.188Z,85.25
2023-04-16T03:31:02.628Z,85.13
2023-04-16T03:31:37.682Z,85.20
2023-04-16T03:32:09.992Z,84.90
2023-04-16T03:32:42.852Z,85.46
2023-04-16T03:33:18.401Z,85.33
2023-04-16T03:33:50.964Z,85.17
2023-04-16T03:34:23.644Z,85.23
2023-04-16T03:34:58.514Z,84.89
2023-04-16T03:35:31.061Z,85.05
2023-04-16T03:36:03.682Z,84.91
2023-04-16T03:36:39.365Z,84.73
2023-04-16T03:37:14.172Z,84.97
2023-04-16T03:37:46.570Z,85.19
2023-04-16T03:38:21.303Z,85.10
2023-04-16T03:38:53.554Z,85.25
2023-04-16T03:39:25.869Z,84.83
2023-04-16T03:39:58.109Z,84.97
2023-04-16T03:40:32.899Z,85.06
2023-04-16T03:41:05.799Z,85.37
2023-04-16T03:41:39.123Z,85.36
2023-04-16T03:42:13.999Z,84.90
2023-04-16T03:42:46.730Z,85.13
2023-04-16T03:43:18.968Z,85.31
2023-04-16T03:43:53.722Z,85.23
2023-04-16T03:44:26.019Z,85.05
2023-04-16T03:44:58.374Z,84.95
2023-04-16T03:45:33.377Z,85.15
2023-04-16T03:46:05.831Z,85.04
2023-04-16T03:46:38.251Z,85.02
2023-04-16T03:47:13.023Z,85.02
2023-04-16T03:47:48.714Z,85.10
2023-04-16T03:48:20.973Z,85.08
2023-04-16T03:48:55.771Z,84.96
2023-04-16T03:49:28.023Z,84.75
2023-04-16T03:50:00.195Z,85.13
2023-04-16T03:50:33.274Z,84.99
2023-04-16T03:51:08.590Z,84.58
2023-04-16T03:51:40.850Z,85.18
2023-04-16T03:52:16.098Z,84.92
2023-04-16T03:52:50.864Z,84.82
2023-04-16T03:53:24.348Z,84.72
2023-04-16T03:53:56.548Z,84.81
2023-04-16T03:54:32.253Z,84.99
2023-04-16T03:55:16.218Z,85.23
2023-04-16T03:55:51.472Z,84.95
2023-04-16T03:56:26.571Z,85.07
2023-04-16T03:56:59.286Z,85.40
2023-04-16T03:57:31.517Z,85.33
2023-04-16T03:58:12.021Z,85.12
2023-04-16T03:58:44.241Z,85.50
2023-04-16T03:59:16.438Z,85.16
2023-04-16T03:59:52.315Z,85.23
2023-04-16T04:00:24.656Z,85.03
2023-04-16T04:01:05.644Z,85.32
2023-04-16T04:01:40.838Z,85.20
2023-04-16T04:02:13.347Z,85.22
2023-04-16T04:02:46.031Z,85.22
2023-04-16T04:03:26.657Z,85.37
2023-04-16T04:04:00.776Z,85.50
2023-04-16T04:04:33.335Z,85.46
2023-04-16T04:05:08.715Z,85.25
2023-04-16T04:05:42.325Z,85.23
2023-04-16T04:06:16.632Z,85.01
2023-04-16T04:06:51.531Z,85.29
2023-04-16T04:07:26.371Z,85.47
2023-04-16T04:07:58.685Z,85.45
2023-04-16T04:08:33.429Z,85.22
2023-04-16T04:09:06.682Z,85.61
2023-04-16T04:09:38.914Z,85.20
2023-04-16T04:10:14.138Z,85.29
2023-04-16T04:10:47.352Z,85.52
2023-04-16T04:11:20.506Z,85.24
2023-04-16T04:11:55.447Z,85.07
2023-04-16T04:12:27.695Z,85.15
2023-04-16T04:13:00.005Z,85.17
2023-04-16T04:13:35.079Z,85.27
2023-04-16T04:14:07.287Z,85.21
2023-04-16T04:14:40.313Z,85.05
2023-04-16T04:15:13.135Z,85.07
2023-04-16T04:15:47.962Z,84.72
2023-04-16T04:16:21.524Z,84.79
2023-04-16T04:16:53.850Z,84.79
2023-04-16T04:17:28.691Z,84.93
2023-04-16T04:18:01.286Z,84.83
2023-04-16T04:18:33.591Z,84.93
2023-04-16T04:19:08.848Z,85.16
2023-04-16T04:19:47.234Z,84.73
2023-04-16T04:20:29.543Z,85.05
2023-04-16T04:21:06.061Z,84.96
2023-04-16T04:21:39.292Z,84.82
2023-04-16T04:22:14.123Z,84.85
2023-04-16T04:22:49.075Z,85.13
2023-04-16T04:23:21.277Z,85.19
2023-04-16T04:23:56.370Z,85.28
2023-04-16T04:24:29.046Z,85.07
2023-04-16T04:25:01.878Z,84.92
2023-04-16T04:25:38.901Z,84.72
2023-04-16T04:26:11.122Z,84.91
2023-04-16T04:26:43.339Z,85.13
2023-04-16T04:27:18.230Z,85.01
2023-04-16T04:27:50.667Z,85.22
2023-04-16T04:28:22.855Z,84.98
2023-04-16T04:28:57.977Z,84.88
2023-04-16T04:29:30.224Z,84.89
2023-04-16T04:30:02.599Z,84.68
2023-04-16T04:30:38.588Z,85.09
2023-04-16T04:31:11.903Z,85.12
2023-04-16T04:31:45.568Z,85.06
2023-04-16T04:32:20.434Z,84.91
2023-04-16T04:32:54.826Z,85.07
2023-04-16T04:33:27.535Z,84.85
2023-04-16T04:34:02.320Z,85.04
2023-04-16T04:34:34.488Z,84.62
2023-04-16T04:35:08.052Z,85.05
2023-04-16T04:35:42.951Z,84.89
2023-04-16T04:36:15.114Z,84.56
2023-04-16T04:36:47.661Z,85.05
2023-04-16T04:37:22.868Z,84.95
2023-04-16T04:37:57.675Z,84.98
2023-04-16T04:38:30.656Z,84.75
2023-04-16T04:39:06.217Z,84.97
2023-04-16T04:39:38.392Z,84.49
2023-04-16T04:40:11.491Z,84.45
2023-04-16T04:40:46.262Z,84.78
2023-04-16T04:41:21.561Z,84.76
2023-04-16T04:41:53.779Z,85.03
2023-04-16T04:42:28.669Z,84.82
2023-04-16T04:43:01.174Z,84.98
2023-04-16T04:43:33.353Z,84.54
2023-04-16T04:44:08.401Z,84.83
2023-04-16T04:44:40.681Z,84.46
2023-04-16T04:45:14.185Z,85.00
2023-04-16T04:45:49.719Z,84.88
2023-04-16T04:46:22.439Z,84.96
2023-04-16T04:46:55.752Z,84.78
2023-04-16T04:47:30.662Z,84.76
2023-04-16T04:48:03.250Z,84.93
2023-04-16T04:48:36.180Z,84.58
2023-04-16T04:49:11.186Z,84.82
2023-04-16T04:49:43.700Z,84.91
2023-04-16T04:50:15.994Z,85.10
2023-04-16T04:50:50.842Z,85.15
2023-04-16T04:51:23.084Z,84.66
2023-04-16T04:51:57.839Z,84.82
2023-04-16T04:52:30.137Z,85.06
2023-04-16T04:53:10.085Z,84.59
2023-04-16T04:53:45.836Z,84.95
2023-04-16T04:54:18.040Z,84.73
2023-04-16T04:54:50.297Z,85.00
2023-04-16T04:55:25.185Z,84.76
2023-04-16T04:56:01.862Z,84.73
2023-04-16T04:56:45.508Z,85.13
2023-04-16T04:57:21.838Z,84.85
2023-04-16T04:57:56.910Z,85.19
2023-04-16T04:58:29.188Z,85.00
2023-04-16T04:59:04.765Z,85.16
2023-04-16T04:59:37.046Z,84.83
2023-04-16T05:00:10.334Z,84.94
2023-04-16T05:00:55.297Z,84.98
2023-04-16T05:01:27.609Z,84.70
2023-04-16T05:02:00.508Z,85.25
2023-04-16T05:02:35.358Z,84.84
2023-04-16T05:03:11.138Z,84.96
2023-04-16T05:03:43.697Z,84.97
2023-04-16T05:04:18.612Z,84.97
2023-04-16T05:04:50.993Z,85.24
2023-04-16T05:05:23.258Z,84.77
2023-04-16T05:05:58.059Z,85.05
2023-04-16T05:06:30.420Z,85.09
2023-04-16T05:07:02.947Z,84.84
2023-04-16T05:07:37.815Z,85.03
2023-04-16T05:08:12.577Z,85.28
2023-04-16T05:08:44.769Z,85.04
2023-04-16T05:09:19.693Z,84.96
2023-04-16T05:09:52.150Z,84.72
2023-04-16T05:10:24.378Z,84.96
2023-04-16T05:10:59.190Z,85.02
2023-04-16T05:11:31.472Z,84.69
2023-04-16T05:12:04.525Z,84.91
2023-04-16T05:12:40.194Z,84.52
2023-04-16T05:13:12.387Z,84.97
2023-04-16T05:13:44.627Z,84.72
2023-04-16T05:14:19.397Z,84.84
2023-04-16T05:14:51.745Z,84.65
2023-04-16T05:15:23.961Z,84.48
2023-04-16T05:15:58.833Z,84.17
2023-04-16T05:16:31.106Z,84.42
2023-04-16T05:17:03.487Z,84.15
2023-04-16T05:17:38.482Z,84.49
2023-04-16T05:18:10.721Z,84.58
2023-04-16T05:18:45.705Z,84.12
2023-04-16T05:19:17.970Z,84.32
2023-04-16T05:19:50.175Z,84.19
2023-04-16T05:20:25.705Z,84.40
2023-04-16T05:20:57.901Z,84.69
2023-04-16T05:21:30.246Z,84.31
2023-04-16T05:22:02.981Z,84.57
2023-04-16T05:22:37.824Z,84.47
2023-04-16T05:23:12.626Z,84.67
2023-04-16T05:23:44.891Z,84.57
2023-04-16T05:24:19.646Z,84.48
2023-04-16T05:24:51.797Z,84.81
2023-04-16T05:25:24.171Z,84.54
2023-04-16T05:25:59.133Z,84.25
2023-04-16T05:26:31.383Z,84.31
2023-04-16T05:27:03.575Z,84.37
2023-04-16T05:27:38.602Z,84.57
2023-04-16T05:28:10.913Z,84.63
2023-04-16T05:28:43.172Z,84.44
2023-04-16T05:29:17.970Z,84.43
2023-04-16T05:29:50.163Z,84.32
2023-04-16T05:30:22.656Z,84.23
2023-04-16T05:30:57.449Z,84.05
2023-04-16T05:31:29.780Z,84.25
2023-04-16T05:32:02.195Z,84.14
2023-04-16T05:32:37.013Z,83.87
2023-04-16T05:33:09.195Z,84.02
2023-04-16T05:33:41.408Z,84.07
2023-04-16T05:34:16.309Z,84.02
2023-04-16T05:34:48.472Z,84.11
2023-04-16T05:35:20.818Z,84.20
2023-04-16T05:35:55.613Z,83.86
2023-04-16T05:36:28.060Z,84.12
2023-04-16T05:37:01.085Z,84.09
2023-04-16T05:37:35.849Z,84.23
2023-04-16T05:38:08.052Z,84.05
2023-04-16T05:38:42.818Z,84.05
2023-04-16T05:39:19.984Z,84.12
2023-04-16T05:39:52.296Z,84.16
2023-04-16T05:40:24.599Z,83.86
2023-04-16T05:40:59.450Z,84.31
2023-04-16T05:41:31.631Z,84.11
2023-04-16T05:42:04.215Z,84.33
2023-04-16T05:42:39.226Z,84.27
2023-04-16T05:43:11.395Z,84.01
2023-04-16T05:43:43.561Z,84.21
2023-04-16T05:44:18.301Z,84.11
2023-04-16T05:44:51.467Z,84.08
2023-04-16T05:45:28.058Z,83.68
2023-04-16T05:46:00.541Z,84.05
2023-04-16T05:46:32.866Z,83.55
2023-04-16T05:47:09.555Z,84.00
2023-04-16T05:47:41.802Z,83.88
2023-04-16T05:48:16.769Z,83.62
2023-04-16T05:48:48.953Z,83.37
2023-04-16T05:49:23.915Z,83.82
2023-04-16T05:49:56.161Z,83.46
2023-04-16T05:50:28.362Z,83.58
2023-04-16T05:51:03.159Z,83.12
2023-04-16T05:51:35.855Z,83.59
2023-04-16T05:52:08.094Z,83.30
2023-04-16T05:52:42.850Z,83.59
2023-04-16T05:53:15.116Z,83.68
2023-04-16T05:53:49.967Z,83.31
2023-04-16T05:54:24.715Z,83.51
2023-04-16T05:54:56.929Z,83.29
2023-04-16T05:55:29.150Z,83.36
2023-04-16T05:56:03.895Z,83.38
2023-04-16T05:56:36.366Z,83.48
2023-04-16T05:57:08.550Z,83.38
2023-04-16T05:57:43.328Z,83.58
2023-04-16T05:58:15.494Z,83.30
2023-04-16T05:58:47.678Z,83.46
2023-04-16T05:59:22.483Z,83.27
2023-04-16T05:59:54.650Z,83.51
2023-04-16T06:00:27.374Z,83.01
2023-04-16T06:01:02.446Z,83.50
2023-04-16T06:01:34.633Z,83.26
2023-04-16T06:02:07.413Z,83.22
2023-04-16T06:02:42.689Z,83.08
2023-04-16T06:03:15.201Z,83.03
2023-04-16T06:03:47.543Z,83.13
2023-04-16T06:04:22.474Z,83.11
2023-04-16T06:04:54.780Z,82.99
2023-04-16T06:05:27.402Z,82.73
2023-04-16T06:06:02.306Z,82.79
2023-04-16T06:06:34.610Z,83.08
2023-04-16T06:07:07.231Z,82.67
2023-04-16T06:07:42.118Z,82.89
2023-04-16T06:08:14.292Z,82.83
2023-04-16T06:08:46.586Z,83.01
2023-04-16T06:09:24.815Z,82.84
2023-04-16T06:09:57.094Z,83.01
2023-04-16T06:10:29.544Z,82.79
2023-04-16T06:11:04.499Z,82.56
2023-04-16T06:11:36.735Z,82.69
2023-04-16T06:12:08.964Z,82.82
2023-04-16T06:12:43.719Z,82.64
2023-04-16T06:13:15.933Z,82.45
2023-04-16T06:13:48.142Z,82.48
2023-04-16T06:14:23.052Z,82.70
2023-04-16T06:14:55.421Z,82.59
2023-04-16T06:15:30.308Z,82.94
2023-04-16T06:16:02.591Z,83.06
2023-04-16T06:16:37.370Z,83.03
2023-04-16T06:17:09.528Z,82.82
2023-04-16T06:17:42.265Z,82.78
2023-04-16T06:18:17.237Z,82.42
2023-04-16T06:18:49.533Z,82.52
2023-04-16T06:19:21.699Z,82.69
2023-04-16T06:19:56.451Z,82.37
2023-04-16T06:20:28.935Z,82.22
2023-04-16T06:21:01.287Z,82.41
2023-04-16T06:21:38.007Z,82.35
2023-04-16T06:22:10.580Z,82.35
2023-04-16T06:22:42.979Z,82.62
2023-04-16T06:23:17.739Z,82.50
2023-04-16T06:23:50.431Z,82.84
2023-04-16T06:24:25.522Z,82.74
2023-04-16T06:25:00.295Z,82.79
2023-04-16T06:25:32.507Z,82.57
2023-04-16T06:26:05.184Z,82.57
2023-04-16T06:26:39.949Z,82.80
2023-04-16T06:27:12.222Z,82.75
2023-04-16T06:27:44.400Z,82.48
2023-04-16T06:28:19.215Z,82.28
2023-04-16T06:28:51.424Z,82.46
2023-04-16T06:29:33.572Z,82.58
2023-04-16T06:30:16.328Z,82.56
2023-04-16T06:30:48.676Z,82.23
2023-04-16T06:31:20.982Z,82.40
2023-04-16T06:31:55.911Z,82.45
2023-04-16T06:32:28.196Z,82.35
2023-04-16T06:33:00.604Z,82.30
2023-04-16T06:33:35.429Z,82.74
2023-04-16T06:34:07.748Z,82.73
2023-04-16T06:34:39.947Z,82.31
2023-04-16T06:35:14.777Z,82.19
2023-04-16T06:35:47.145Z,82.06
2023-04-16T06:36:19.386Z,82.23
2023-04-16T06:36:54.123Z,82.44
2023-04-16T06:37:26.293Z,82.13
2023-04-16T06:37:58.458Z,82.41
2023-04-16T06:38:33.298Z,82.20
2023-04-16T06:39:05.547Z,82.29
2023-04-16T06:39:40.345Z,82.48
2023-04-16T06:40:16.145Z,82.28
2023-04-16T06:40:49.650Z,82.36
2023-04-16T06:41:22.953Z,82.37
2023-04-16T06:41:57.723Z,82.49
2023-04-16T06:42:30.005Z,82.09
2023-04-16T06:43:02.258Z,82.15
2023-04-16T06:43:37.161Z,82.29
2023-04-16T06:44:09.426Z,82.11
2023-04-16T06:44:41.738Z,82.34
2023-04-16T06:45:16.882Z,81.90
2023-04-16T06:45:49.056Z,82.29
2023-04-16T06:46:21.522Z,82.29
2023-04-16T06:46:56.407Z,81.95
2023-04-16T06:47:28.631Z,81.88
2023-04-16T06:48:01.655Z,81.89
2023-04-16T06:48:36.446Z,82.05
2023-04-16T06:49:08.840Z,82.29
2023-04-16T06:49:41.308Z,81.77
2023-04-16T06:50:16.095Z,82.09
2023-04-16T06:50:48.283Z,82.15
2023-04-16T06:51:20.943Z,81.99
2023-04-16T06:51:56.459Z,82.08
2023-04-16T06:52:29.448Z,81.71
2023-04-16T06:53:01.975Z,81.56
2023-04-16T06:53:37.633Z,81.68
2023-04-16T06:54:09.824Z,81.28
2023-04-16T06:54:44.626Z,81.18
2023-04-16T06:55:19.580Z,81.20
2023-04-16T06:55:52.114Z,81.48
2023-04-16T06:56:24.329Z,81.67
2023-04-16T06:56:59.165Z,81.61
2023-04-16T06:57:31.341Z,81.74
2023-04-16T06:58:03.845Z,81.79
2023-04-16T06:58:38.763Z,81.40
2023-04-16T06:59:11.321Z,81.41
2023-04-16T06:59:43.646Z,81.43
2023-04-16T07:00:18.571Z,81.75
2023-04-16T07:00:50.945Z,81.25
2023-04-16T07:01:23.527Z,81.43
2023-04-16T07:01:58.627Z,81.48
2023-04-16T07:02:31.136Z,81.66
2023-04-16T07:03:06.270Z,81.36
2023-04-16T07:03:38.985Z,81.67
2023-04-16T07:04:12.499Z,81.31
2023-04-16T07:04:47.283Z,81.86
2023-04-16T07:05:19.698Z,81.44
2023-04-16T07:05:51.953Z,81.64
2023-04-16T07:06:27.295Z,81.93
2023-04-16T07:06:59.467Z,81.91
2023-04-16T07:07:32.485Z,81.70
2023-04-16T07:08:07.373Z,81.37
2023-04-16T07:08:39.541Z,81.41
2023-04-16T07:09:11.937Z,81.42
2023-04-16T07:09:49.368Z,81.56
2023-04-16T07:10:21.552Z,81.06
2023-04-16T07:10:54.130Z,81.42
2023-04-16T07:11:28.975Z,81.36
2023-04-16T07:12:01.364Z,81.23
2023-04-16T07:12:33.808Z,81.41
2023-04-16T07:13:08.627Z,81.65
2023-04-16T07:13:41.120Z,81.27
2023-04-16T07:14:13.555Z,81.32
2023-04-16T07:14:49.225Z,81.18
2023-04-16T07:15:21.510Z,81.20